sensor_id;sensor_type;location;lat;lon;timestamp;pressure;altitude;pressure_sealevel;temperature;humidity
10806;BME280;5455;53.224;6.000;2022-10-16T00:01:41;100751.00;;;12.55;100.00
10806;BME280;5455;53.224;6.000;2022-10-16T00:04:09;100753.38;;;12.56;100.00
10806;BME280;5455;53.224;6.000;2022-10-16T00:06:37;100750.16;;;12.51;100.00
10806;BME280;5455;53.224;6.000;2022-10-16T00:09:06;100750.91;;;12.48;100.00
10806;BME280;5455;53.224;6.000;2022-10-16T00:11:37;100754.81;;;12.43;100.00
10806;BME280;5455;53.224;6.000;2022-10-16T00:14:08;100745.97;;;12.34;100.00
10806;BME280;5455;53.224;6.000;2022-10-16T00:16:36;100749.06;;;12.29;100.00
10806;BME280;5455;53.224;6.000;2022-10-16T00:19:04;100743.84;;;12.24;100.00
10806;BME280;5455;53.224;6.000;2022-10-16T00:21:33;100741.09;;;12.24;100.00
10806;BME280;5455;53.224;6.000;2022-10-16T00:24:07;100739.47;;;12.23;100.00
10806;BME280;5455;53.224;6.000;2022-10-16T00:26:36;100735.50;;;12.21;100.00
10806;BME280;5455;53.224;6.000;2022-10-16T00:29:05;100738.59;;;12.15;100.00
10806;BME280;5455;53.224;6.000;2022-10-16T00:31:33;100741.41;;;12.19;100.00
10806;BME280;5455;53.224;6.000;2022-10-16T00:34:00;100741.50;;;12.26;100.00
10806;BME280;5455;53.224;6.000;2022-10-16T00:36:28;100736.41;;;12.28;100.00
10806;BME280;5455;53.224;6.000;2022-10-16T00:38:57;100726.84;;;12.22;100.00
10806;BME280;5455;53.224;6.000;2022-10-16T00:41:33;100734.66;;;12.17;100.00
10806;BME280;5455;53.224;6.000;2022-10-16T00:44:04;100732.94;;;12.08;100.00
10806;BME280;5455;53.224;6.000;2022-10-16T00:46:51;100732.84;;;12.01;100.00
10806;BME280;5455;53.224;6.000;2022-10-16T00:49:20;100725.31;;;11.98;100.00
10806;BME280;5455;53.224;6.000;2022-10-16T00:51:51;100723.31;;;11.99;100.00
10806;BME280;5455;53.224;6.000;2022-10-16T00:54:23;100730.09;;;12.01;100.00
10806;BME280;5455;53.224;6.000;2022-10-16T00:56:54;100731.25;;;12.00;100.00
10806;BME280;5455;53.224;6.000;2022-10-16T00:59:26;100730.41;;;11.96;100.00
10806;BME280;5455;53.224;6.000;2022-10-16T01:01:57;100728.81;;;11.95;100.00
10806;BME280;5455;53.224;6.000;2022-10-16T01:04:26;100727.22;;;11.94;100.00
10806;BME280;5455;53.224;6.000;2022-10-16T01:07:06;100741.56;;;12.03;100.00
10806;BME280;5455;53.224;6.000;2022-10-16T01:09:57;100735.34;;;12.10;100.00
10806;BME280;5455;53.224;6.000;2022-10-16T01:15:42;100733.25;;;12.30;100.00
10806;BME280;5455;53.224;6.000;2022-10-16T01:18:22;100737.31;;;12.36;100.00
10806;BME280;5455;53.224;6.000;2022-10-16T01:20:59;100744.50;;;12.44;100.00
10806;BME280;5455;53.224;6.000;2022-10-16T01:28:52;100743.53;;;12.59;100.00
10806;BME280;5455;53.224;6.000;2022-10-16T01:31:29;100754.28;;;12.64;100.00
10806;BME280;5455;53.224;6.000;2022-10-16T01:37:15;100758.75;;;12.72;100.00
10806;BME280;5455;53.224;6.000;2022-10-16T01:39:46;100749.31;;;12.77;100.00
10806;BME280;5455;53.224;6.000;2022-10-16T01:42:19;100760.06;;;12.82;100.00
10806;BME280;5455;53.224;6.000;2022-10-16T01:44:49;100753.31;;;12.79;100.00
10806;BME280;5455;53.224;6.000;2022-10-16T01:47:21;100762.34;;;12.76;100.00
10806;BME280;5455;53.224;6.000;2022-10-16T01:49:51;100764.72;;;12.78;100.00
10806;BME280;5455;53.224;6.000;2022-10-16T01:52:23;100767.19;;;12.83;100.00
10806;BME280;5455;53.224;6.000;2022-10-16T01:54:55;100779.09;;;12.87;100.00
10806;BME280;5455;53.224;6.000;2022-10-16T01:57:24;100769.63;;;12.88;100.00
10806;BME280;5455;53.224;6.000;2022-10-16T01:59:56;100776.72;;;12.85;100.00
10806;BME280;5455;53.224;6.000;2022-10-16T02:02:28;100781.38;;;12.81;100.00
10806;BME280;5455;53.224;6.000;2022-10-16T02:05:03;100773.44;;;12.76;100.00
10806;BME280;5455;53.224;6.000;2022-10-16T02:07:32;100770.28;;;12.78;100.00
10806;BME280;5455;53.224;6.000;2022-10-16T02:10:00;100765.47;;;12.75;100.00
10806;BME280;5455;53.224;6.000;2022-10-16T02:12:31;100770.31;;;12.81;100.00
10806;BME280;5455;53.224;6.000;2022-10-16T02:15:00;100767.09;;;12.76;100.00
10806;BME280;5455;53.224;6.000;2022-10-16T02:17:28;100779.72;;;12.73;100.00
10806;BME280;5455;53.224;6.000;2022-10-16T02:19:57;100772.16;;;12.70;100.00
10806;BME280;5455;53.224;6.000;2022-10-16T02:22:30;100773.28;;;12.65;100.00
10806;BME280;5455;53.224;6.000;2022-10-16T02:25:10;100771.25;;;12.62;100.00
10806;BME280;5455;53.224;6.000;2022-10-16T02:27:45;100773.22;;;12.62;100.00
10806;BME280;5455;53.224;6.000;2022-10-16T02:30:32;100770.44;;;12.62;100.00
10806;BME280;5455;53.224;6.000;2022-10-16T02:33:03;100763.34;;;12.61;100.00
10806;BME280;5455;53.224;6.000;2022-10-16T02:35:33;100754.94;;;12.54;100.00
10806;BME280;5455;53.224;6.000;2022-10-16T02:38:03;100761.28;;;12.54;100.00
10806;BME280;5455;53.224;6.000;2022-10-16T02:40:32;100760.00;;;12.48;100.00
10806;BME280;5455;53.224;6.000;2022-10-16T02:43:03;100763.47;;;12.42;100.00
10806;BME280;5455;53.224;6.000;2022-10-16T02:45:32;100764.25;;;12.42;100.00
10806;BME280;5455;53.224;6.000;2022-10-16T02:48:03;100774.56;;;12.45;100.00
10806;BME280;5455;53.224;6.000;2022-10-16T02:50:31;100767.44;;;12.44;100.00
10806;BME280;5455;53.224;6.000;2022-10-16T02:53:01;100779.31;;;12.45;100.00
10806;BME280;5455;53.224;6.000;2022-10-16T02:55:29;100769.84;;;12.46;100.00
10806;BME280;5455;53.224;6.000;2022-10-16T02:57:56;100770.19;;;12.44;100.00
10806;BME280;5455;53.224;6.000;2022-10-16T03:00:24;100761.91;;;12.44;100.00
10806;BME280;5455;53.224;6.000;2022-10-16T03:02:52;100772.09;;;12.37;100.00
10806;BME280;5455;53.224;6.000;2022-10-16T03:05:19;100763.69;;;12.30;100.00
10806;BME280;5455;53.224;6.000;2022-10-16T03:07:48;100764.38;;;12.23;100.00
10806;BME280;5455;53.224;6.000;2022-10-16T03:10:15;100766.66;;;12.18;100.00
10806;BME280;5455;53.224;6.000;2022-10-16T03:12:43;100769.81;;;12.16;100.00
10806;BME280;5455;53.224;6.000;2022-10-16T03:15:10;100760.66;;;12.12;100.00
10806;BME280;5455;53.224;6.000;2022-10-16T03:17:38;100759.03;;;12.11;100.00
10806;BME280;5455;53.224;6.000;2022-10-16T03:20:05;100771.28;;;12.10;100.00
10806;BME280;5455;53.224;6.000;2022-10-16T03:22:33;100771.66;;;12.08;100.00
10806;BME280;5455;53.224;6.000;2022-10-16T03:25:01;100781.16;;;12.11;100.00
10806;BME280;5455;53.224;6.000;2022-10-16T03:27:29;100783.44;;;12.05;100.00
10806;BME280;5455;53.224;6.000;2022-10-16T03:29:56;100774.34;;;12.05;100.00
10806;BME280;5455;53.224;6.000;2022-10-16T03:32:24;100774.41;;;12.08;100.00
10806;BME280;5455;53.224;6.000;2022-10-16T03:34:52;100768.06;;;12.08;100.00
10806;BME280;5455;53.224;6.000;2022-10-16T03:37:21;100781.59;;;12.13;100.00
10806;BME280;5455;53.224;6.000;2022-10-16T03:39:48;100779.56;;;12.10;100.00
10806;BME280;5455;53.224;6.000;2022-10-16T03:42:16;100785.66;;;12.19;100.00
10806;BME280;5455;53.224;6.000;2022-10-16T03:44:44;100790.91;;;12.28;100.00
10806;BME280;5455;53.224;6.000;2022-10-16T03:47:12;100783.09;;;12.33;100.00
10806;BME280;5455;53.224;6.000;2022-10-16T03:49:39;100789.91;;;12.39;100.00
10806;BME280;5455;53.224;6.000;2022-10-16T03:52:07;100793.53;;;12.43;100.00
10806;BME280;5455;53.224;6.000;2022-10-16T03:54:34;100795.56;;;12.50;100.00
10806;BME280;5455;53.224;6.000;2022-10-16T03:57:02;100794.03;;;12.52;100.00
10806;BME280;5455;53.224;6.000;2022-10-16T03:59:29;100789.72;;;12.55;100.00
10806;BME280;5455;53.224;6.000;2022-10-16T04:01:57;100801.63;;;12.59;100.00
10806;BME280;5455;53.224;6.000;2022-10-16T04:04:24;100801.25;;;12.60;100.00
10806;BME280;5455;53.224;6.000;2022-10-16T04:06:52;100814.34;;;12.63;100.00
10806;BME280;5455;53.224;6.000;2022-10-16T04:09:20;100825.03;;;12.65;100.00
10806;BME280;5455;53.224;6.000;2022-10-16T04:11:48;100828.66;;;12.69;100.00
10806;BME280;5455;53.224;6.000;2022-10-16T04:14:15;100824.28;;;12.68;100.00
10806;BME280;5455;53.224;6.000;2022-10-16T04:16:43;100823.88;;;12.66;100.00
10806;BME280;5455;53.224;6.000;2022-10-16T04:19:11;100827.78;;;12.65;100.00
10806;BME280;5455;53.224;6.000;2022-10-16T04:21:39;100833.72;;;12.63;100.00
10806;BME280;5455;53.224;6.000;2022-10-16T04:24:06;100838.16;;;12.71;100.00
10806;BME280;5455;53.224;6.000;2022-10-16T04:26:33;100834.72;;;12.78;100.00
10806;BME280;5455;53.224;6.000;2022-10-16T04:29:01;100841.09;;;12.82;100.00
10806;BME280;5455;53.224;6.000;2022-10-16T04:31:29;100847.09;;;12.88;100.00
10806;BME280;5455;53.224;6.000;2022-10-16T04:33:57;100847.50;;;12.90;100.00
10806;BME280;5455;53.224;6.000;2022-10-16T04:36:24;100845.53;;;12.90;100.00
10806;BME280;5455;53.224;6.000;2022-10-16T04:38:55;100857.78;;;12.89;100.00
10806;BME280;5455;53.224;6.000;2022-10-16T04:41:23;100857.00;;;12.89;100.00
10806;BME280;5455;53.224;6.000;2022-10-16T04:43:50;100848.25;;;12.87;100.00
10806;BME280;5455;53.224;6.000;2022-10-16T04:46:18;100845.44;;;12.83;100.00
10806;BME280;5455;53.224;6.000;2022-10-16T04:48:45;100837.13;;;12.80;100.00
10806;BME280;5455;53.224;6.000;2022-10-16T04:51:14;100837.00;;;12.73;100.00
10806;BME280;5455;53.224;6.000;2022-10-16T04:53:41;100850.44;;;12.70;100.00
10806;BME280;5455;53.224;6.000;2022-10-16T04:56:08;100842.81;;;12.64;100.00
10806;BME280;5455;53.224;6.000;2022-10-16T04:58:36;100849.44;;;12.59;100.00
10806;BME280;5455;53.224;6.000;2022-10-16T05:01:04;100850.56;;;12.55;100.00
10806;BME280;5455;53.224;6.000;2022-10-16T05:03:31;100850.94;;;12.53;100.00
10806;BME280;5455;53.224;6.000;2022-10-16T05:05:59;100854.09;;;12.52;100.00
10806;BME280;5455;53.224;6.000;2022-10-16T05:08:26;100862.38;;;12.52;100.00
10806;BME280;5455;53.224;6.000;2022-10-16T05:10:54;100860.41;;;12.52;100.00
10806;BME280;5455;53.224;6.000;2022-10-16T05:13:21;100864.41;;;12.55;100.00
10806;BME280;5455;53.224;6.000;2022-10-16T05:15:50;100859.72;;;12.59;100.00
10806;BME280;5455;53.224;6.000;2022-10-16T05:18:18;100872.03;;;12.61;100.00
10806;BME280;5455;53.224;6.000;2022-10-16T05:20:45;100864.88;;;12.60;100.00
10806;BME280;5455;53.224;6.000;2022-10-16T05:23:13;100873.53;;;12.59;100.00
10806;BME280;5455;53.224;6.000;2022-10-16T05:25:55;100877.50;;;12.58;100.00
10806;BME280;5455;53.224;6.000;2022-10-16T05:28:27;100887.00;;;12.60;100.00
10806;BME280;5455;53.224;6.000;2022-10-16T05:30:55;100880.31;;;12.61;100.00
10806;BME280;5455;53.224;6.000;2022-10-16T05:33:24;100887.91;;;12.68;100.00
10806;BME280;5455;53.224;6.000;2022-10-16T05:35:52;100895.84;;;12.69;100.00
10806;BME280;5455;53.224;6.000;2022-10-16T05:38:20;100883.97;;;12.69;100.00
10806;BME280;5455;53.224;6.000;2022-10-16T05:40:51;100888.66;;;12.65;100.00
10806;BME280;5455;53.224;6.000;2022-10-16T05:43:22;100889.38;;;12.58;100.00
10806;BME280;5455;53.224;6.000;2022-10-16T05:46:08;100882.16;;;12.54;100.00
10806;BME280;5455;53.224;6.000;2022-10-16T05:48:35;100889.50;;;12.43;100.00
10806;BME280;5455;53.224;6.000;2022-10-16T05:51:05;100887.41;;;12.36;100.00
10806;BME280;5455;53.224;6.000;2022-10-16T05:53:37;100902.41;;;12.35;100.00
10806;BME280;5455;53.224;6.000;2022-10-16T05:56:06;100911.91;;;12.38;100.00
10806;BME280;5455;53.224;6.000;2022-10-16T05:58:36;100902.53;;;12.42;100.00
10806;BME280;5455;53.224;6.000;2022-10-16T06:01:10;100903.75;;;12.45;100.00
10806;BME280;5455;53.224;6.000;2022-10-16T06:03:39;100914.44;;;12.46;100.00
10806;BME280;5455;53.224;6.000;2022-10-16T06:06:15;100917.31;;;12.53;100.00
10806;BME280;5455;53.224;6.000;2022-10-16T06:08:44;100916.97;;;12.55;100.00
10806;BME280;5455;53.224;6.000;2022-10-16T06:11:20;100918.53;;;12.56;100.00
10806;BME280;5455;53.224;6.000;2022-10-16T06:13:53;100917.03;;;12.58;100.00
10806;BME280;5455;53.224;6.000;2022-10-16T06:16:21;100909.09;;;12.57;100.00
10806;BME280;5455;53.224;6.000;2022-10-16T06:18:51;100920.53;;;12.55;100.00
10806;BME280;5455;53.224;6.000;2022-10-16T06:21:24;100914.47;;;12.50;100.00
10806;BME280;5455;53.224;6.000;2022-10-16T06:23:53;100914.88;;;12.48;100.00
10806;BME280;5455;53.224;6.000;2022-10-16T06:26:23;100920.81;;;12.50;100.00
10806;BME280;5455;53.224;6.000;2022-10-16T06:28:51;100927.53;;;12.49;100.00
10806;BME280;5455;53.224;6.000;2022-10-16T06:31:21;100927.97;;;12.51;100.00
10806;BME280;5455;53.224;6.000;2022-10-16T06:33:51;100930.13;;;12.61;100.00
10806;BME280;5455;53.224;6.000;2022-10-16T06:36:19;100927.38;;;12.65;100.00
10806;BME280;5455;53.224;6.000;2022-10-16T06:38:47;100940.47;;;12.68;100.00
10806;BME280;5455;53.224;6.000;2022-10-16T06:41:18;100941.81;;;12.78;100.00
10806;BME280;5455;53.224;6.000;2022-10-16T06:43:46;100941.94;;;12.85;100.00
10806;BME280;5455;53.224;6.000;2022-10-16T06:46:16;100940.38;;;12.87;100.00
10806;BME280;5455;53.224;6.000;2022-10-16T06:48:44;100945.97;;;12.91;100.00
10806;BME280;5455;53.224;6.000;2022-10-16T06:51:14;100964.56;;;12.90;100.00
10806;BME280;5455;53.224;6.000;2022-10-16T06:53:46;100965.63;;;12.82;100.00
10806;BME280;5455;53.224;6.000;2022-10-16T06:56:30;100967.47;;;12.75;100.00
10806;BME280;5455;53.224;6.000;2022-10-16T06:58:59;100978.53;;;12.75;100.00
10806;BME280;5455;53.224;6.000;2022-10-16T07:01:27;100990.72;;;12.70;100.00
10806;BME280;5455;53.224;6.000;2022-10-16T07:03:55;100997.72;;;12.64;100.00
10806;BME280;5455;53.224;6.000;2022-10-16T07:06:24;100984.63;;;12.61;100.00
10806;BME280;5455;53.224;6.000;2022-10-16T07:08:53;100999.31;;;12.65;100.00
10806;BME280;5455;53.224;6.000;2022-10-16T07:11:22;101005.72;;;12.69;100.00
10806;BME280;5455;53.224;6.000;2022-10-16T07:13:51;101009.75;;;12.75;100.00
10806;BME280;5455;53.224;6.000;2022-10-16T07:16:27;100999.13;;;12.77;100.00
10806;BME280;5455;53.224;6.000;2022-10-16T07:18:56;100997.16;;;12.78;100.00
10806;BME280;5455;53.224;6.000;2022-10-16T07:21:32;101016.53;;;12.78;100.00
10806;BME280;5455;53.224;6.000;2022-10-16T07:24:05;101024.81;;;12.78;100.00
10806;BME280;5455;53.224;6.000;2022-10-16T07:26:35;101029.63;;;12.81;100.00
10806;BME280;5455;53.224;6.000;2022-10-16T07:29:03;101026.03;;;12.80;100.00
10806;BME280;5455;53.224;6.000;2022-10-16T07:31:31;101039.53;;;12.82;100.00
10806;BME280;5455;53.224;6.000;2022-10-16T07:34:00;101034.88;;;12.86;100.00
10806;BME280;5455;53.224;6.000;2022-10-16T07:36:28;101045.94;;;12.86;100.00
10806;BME280;5455;53.224;6.000;2022-10-16T07:38:55;101051.09;;;12.87;100.00
10806;BME280;5455;53.224;6.000;2022-10-16T07:41:27;101049.19;;;12.91;100.00
10806;BME280;5455;53.224;6.000;2022-10-16T07:43:55;101044.94;;;12.97;100.00
10806;BME280;5455;53.224;6.000;2022-10-16T07:46:27;101049.34;;;13.02;100.00
10806;BME280;5455;53.224;6.000;2022-10-16T07:48:55;101045.03;;;13.04;100.00
10806;BME280;5455;53.224;6.000;2022-10-16T07:51:24;101050.72;;;13.11;100.00
10806;BME280;5455;53.224;6.000;2022-10-16T07:53:53;101057.22;;;13.22;100.00
10806;BME280;5455;53.224;6.000;2022-10-16T07:56:21;101057.03;;;13.35;100.00
10806;BME280;5455;53.224;6.000;2022-10-16T07:58:50;101066.34;;;13.49;100.00
10806;BME280;5455;53.224;6.000;2022-10-16T08:01:18;101069.69;;;13.62;100.00
10806;BME280;5455;53.224;6.000;2022-10-16T08:03:48;101073.03;;;13.74;100.00
10806;BME280;5455;53.224;6.000;2022-10-16T08:06:18;101082.22;;;13.78;100.00
10806;BME280;5455;53.224;6.000;2022-10-16T08:08:53;101097.94;;;13.71;100.00
10806;BME280;5455;53.224;6.000;2022-10-16T08:11:20;101109.66;;;13.61;100.00
10806;BME280;5455;53.224;6.000;2022-10-16T08:13:48;101108.81;;;13.57;100.00
10806;BME280;5455;53.224;6.000;2022-10-16T08:16:15;101120.25;;;13.55;100.00
10806;BME280;5455;53.224;6.000;2022-10-16T08:18:44;101121.06;;;13.56;100.00
10806;BME280;5455;53.224;6.000;2022-10-16T08:21:17;101112.91;;;13.66;100.00
10806;BME280;5455;53.224;6.000;2022-10-16T08:23:49;101119.03;;;13.79;100.00
10806;BME280;5455;53.224;6.000;2022-10-16T08:26:25;101125.59;;;13.94;100.00
10806;BME280;5455;53.224;6.000;2022-10-16T08:28:53;101129.13;;;13.94;100.00
10806;BME280;5455;53.224;6.000;2022-10-16T08:31:21;101131.66;;;13.76;100.00
10806;BME280;5455;53.224;6.000;2022-10-16T08:33:49;101141.31;;;13.60;100.00
10806;BME280;5455;53.224;6.000;2022-10-16T08:36:16;101146.41;;;13.58;100.00
10806;BME280;5455;53.224;6.000;2022-10-16T08:38:47;101145.44;;;13.69;100.00
10806;BME280;5455;53.224;6.000;2022-10-16T08:41:27;101147.91;;;14.04;100.00
10806;BME280;5455;53.224;6.000;2022-10-16T08:49:41;101174.22;;;14.77;100.00
10806;BME280;5455;53.224;6.000;2022-10-16T08:52:14;101178.97;;;14.76;100.00
10806;BME280;5455;53.224;6.000;2022-10-16T08:54:44;101185.69;;;14.72;100.00
10806;BME280;5455;53.224;6.000;2022-10-16T08:57:16;101186.75;;;14.64;100.00
10806;BME280;5455;53.224;6.000;2022-10-16T08:59:51;101194.28;;;14.63;100.00
10806;BME280;5455;53.224;6.000;2022-10-16T09:05:58;101218.38;;;14.56;100.00
10806;BME280;5455;53.224;6.000;2022-10-16T09:09:02;101215.13;;;14.50;100.00
10806;BME280;5455;53.224;6.000;2022-10-16T09:11:45;101193.75;;;14.51;100.00
10806;BME280;5455;53.224;6.000;2022-10-16T09:17:01;101235.38;;;14.54;100.00
10806;BME280;5455;53.224;6.000;2022-10-16T09:19:35;101226.41;;;14.64;100.00
10806;BME280;5455;53.224;6.000;2022-10-16T09:22:12;101251.19;;;14.80;100.00
10806;BME280;5455;53.224;6.000;2022-10-16T09:24:41;101242.78;;;14.73;100.00
10806;BME280;5455;53.224;6.000;2022-10-16T09:27:13;101229.28;;;14.71;100.00
10806;BME280;5455;53.224;6.000;2022-10-16T09:29:42;101243.59;;;14.73;100.00
10806;BME280;5455;53.224;6.000;2022-10-16T09:32:16;101246.75;;;14.72;100.00
10806;BME280;5455;53.224;6.000;2022-10-16T09:34:54;101246.53;;;14.87;100.00
10806;BME280;5455;53.224;6.000;2022-10-16T09:37:24;101260.97;;;15.00;100.00
10806;BME280;5455;53.224;6.000;2022-10-16T09:39:54;101266.47;;;14.97;100.00
10806;BME280;5455;53.224;6.000;2022-10-16T09:42:25;101265.94;;;14.84;100.00
10806;BME280;5455;53.224;6.000;2022-10-16T09:44:54;101253.59;;;14.81;100.00
10806;BME280;5455;53.224;6.000;2022-10-16T09:47:30;101253.28;;;14.90;100.00
10806;BME280;5455;53.224;6.000;2022-10-16T09:50:02;101268.53;;;15.03;100.00
10806;BME280;5455;53.224;6.000;2022-10-16T09:52:32;101273.88;;;15.19;100.00
10806;BME280;5455;53.224;6.000;2022-10-16T09:55:09;101278.09;;;15.42;100.00
10806;BME280;5455;53.224;6.000;2022-10-16T09:57:52;101274.97;;;15.44;100.00
10806;BME280;5455;53.224;6.000;2022-10-16T10:00:23;101277.81;;;15.51;100.00
10806;BME280;5455;53.224;6.000;2022-10-16T10:02:51;101276.34;;;15.61;100.00
10806;BME280;5455;53.224;6.000;2022-10-16T10:05:27;101280.00;;;15.72;100.00
10806;BME280;5455;53.224;6.000;2022-10-16T10:07:57;101289.44;;;16.08;100.00
10806;BME280;5455;53.224;6.000;2022-10-16T10:10:30;101294.00;;;16.30;100.00
10806;BME280;5455;53.224;6.000;2022-10-16T10:12:59;101294.06;;;16.44;100.00
10806;BME280;5455;53.224;6.000;2022-10-16T10:15:30;101295.00;;;16.59;100.00
10806;BME280;5455;53.224;6.000;2022-10-16T10:18:00;101313.72;;;16.58;100.00
10806;BME280;5455;53.224;6.000;2022-10-16T10:20:34;101311.97;;;16.46;100.00
10806;BME280;5455;53.224;6.000;2022-10-16T10:23:26;101318.66;;;16.35;100.00
10806;BME280;5455;53.224;6.000;2022-10-16T10:26:20;101320.50;;;16.13;100.00
10806;BME280;5455;53.224;6.000;2022-10-16T10:31:58;101330.72;;;16.02;100.00
10806;BME280;5455;53.224;6.000;2022-10-16T10:40:15;101338.56;;;15.49;100.00
10806;BME280;5455;53.224;6.000;2022-10-16T10:42:53;101347.25;;;15.48;100.00
10806;BME280;5455;53.224;6.000;2022-10-16T10:45:27;101349.59;;;15.45;100.00
10806;BME280;5455;53.224;6.000;2022-10-16T10:51:34;101356.84;;;15.90;100.00
10806;BME280;5455;53.224;6.000;2022-10-16T10:56:58;101370.50;;;16.06;100.00
10806;BME280;5455;53.224;6.000;2022-10-16T11:11:00;101388.34;;;15.98;100.00
10806;BME280;5455;53.224;6.000;2022-10-16T11:13:35;101407.75;;;15.94;100.00
10806;BME280;5455;53.224;6.000;2022-10-16T11:16:14;101391.00;;;15.87;100.00
10806;BME280;5455;53.224;6.000;2022-10-16T11:19:05;101393.72;;;15.84;100.00
10806;BME280;5455;53.224;6.000;2022-10-16T11:21:45;101394.09;;;15.79;100.00
10806;BME280;5455;53.224;6.000;2022-10-16T11:24:24;101413.91;;;15.74;100.00
10806;BME280;5455;53.224;6.000;2022-10-16T11:26:59;101412.34;;;15.76;97.30
10806;BME280;5455;53.224;6.000;2022-10-16T11:29:31;101411.94;;;15.78;98.60
10806;BME280;5455;53.224;6.000;2022-10-16T11:32:19;101417.50;;;15.78;99.33
10806;BME280;5455;53.224;6.000;2022-10-16T11:34:52;101413.19;;;15.84;99.21
10806;BME280;5455;53.224;6.000;2022-10-16T11:37:39;101417.69;;;15.95;96.97
10806;BME280;5455;53.224;6.000;2022-10-16T11:40:20;101426.25;;;16.13;97.88
10806;BME280;5455;53.224;6.000;2022-10-16T11:42:57;101435.59;;;16.38;97.98
10806;BME280;5455;53.224;6.000;2022-10-16T11:45:36;101437.31;;;16.53;97.81
10806;BME280;5455;53.224;6.000;2022-10-16T11:50:57;101437.72;;;16.52;95.21
10806;BME280;5455;53.224;6.000;2022-10-16T11:56:17;101446.13;;;16.15;94.42
10806;BME280;5455;53.224;6.000;2022-10-16T11:58:56;101447.69;;;16.16;93.86
10806;BME280;5455;53.224;6.000;2022-10-16T12:04:05;101459.28;;;16.18;92.31
10806;BME280;5455;53.224;6.000;2022-10-16T12:06:45;101465.66;;;16.22;92.04
10806;BME280;5455;53.224;6.000;2022-10-16T12:09:21;101475.13;;;16.14;92.23
10806;BME280;5455;53.224;6.000;2022-10-16T12:11:49;101469.47;;;16.04;93.06
10806;BME280;5455;53.224;6.000;2022-10-16T12:14:20;101483.66;;;15.95;93.84
10806;BME280;5455;53.224;6.000;2022-10-16T12:16:57;101484.09;;;15.97;94.72
10806;BME280;5455;53.224;6.000;2022-10-16T12:19:29;101489.19;;;15.91;93.08
10806;BME280;5455;53.224;6.000;2022-10-16T12:21:59;101487.56;;;15.90;95.44
10806;BME280;5455;53.224;6.000;2022-10-16T12:24:39;101495.63;;;15.99;96.60
10806;BME280;5455;53.224;6.000;2022-10-16T12:27:26;101495.31;;;16.08;96.22
10806;BME280;5455;53.224;6.000;2022-10-16T12:30:00;101490.94;;;16.07;95.49
10806;BME280;5455;53.224;6.000;2022-10-16T12:32:36;101501.41;;;16.20;94.76
10806;BME280;5455;53.224;6.000;2022-10-16T12:35:20;101497.84;;;16.20;93.76
10806;BME280;5455;53.224;6.000;2022-10-16T12:37:48;101509.72;;;16.13;95.63
10806;BME280;5455;53.224;6.000;2022-10-16T12:40:26;101514.78;;;16.08;95.62
10806;BME280;5455;53.224;6.000;2022-10-16T12:42:55;101503.19;;;16.02;92.67
10806;BME280;5455;53.224;6.000;2022-10-16T12:47:53;101511.50;;;15.95;91.77
10806;BME280;5455;53.224;6.000;2022-10-16T12:50:25;101506.59;;;15.85;91.79
10806;BME280;5455;53.224;6.000;2022-10-16T12:52:53;101512.44;;;15.76;92.66
10806;BME280;5455;53.224;6.000;2022-10-16T12:55:22;101515.88;;;15.66;93.21
10806;BME280;5455;53.224;6.000;2022-10-16T13:00:58;101518.88;;;15.54;95.90
10806;BME280;5455;53.224;6.000;2022-10-16T13:14:50;101528.22;;;15.42;98.86
10806;BME280;5455;53.224;6.000;2022-10-16T13:20:21;101538.53;;;15.42;100.00
10806;BME280;5455;53.224;6.000;2022-10-16T13:28:08;101537.94;;;15.29;99.78
10806;BME280;5455;53.224;6.000;2022-10-16T13:30:50;101549.34;;;15.21;100.00
10806;BME280;5455;53.224;6.000;2022-10-16T13:36:02;101557.25;;;15.19;100.00
10806;BME280;5455;53.224;6.000;2022-10-16T13:38:34;101573.16;;;15.22;100.00
10806;BME280;5455;53.224;6.000;2022-10-16T13:41:14;101568.03;;;15.24;100.00
10806;BME280;5455;53.224;6.000;2022-10-16T13:43:49;101567.63;;;15.22;100.00
10806;BME280;5455;53.224;6.000;2022-10-16T13:46:19;101575.16;;;15.21;100.00
10806;BME280;5455;53.224;6.000;2022-10-16T13:49:15;101574.72;;;15.19;100.00
10806;BME280;5455;53.224;6.000;2022-10-16T13:51:56;101583.06;;;15.19;100.00
10806;BME280;5455;53.224;6.000;2022-10-16T13:54:26;101589.78;;;15.18;100.00
10806;BME280;5455;53.224;6.000;2022-10-16T13:56:54;101601.63;;;15.15;100.00
10806;BME280;5455;53.224;6.000;2022-10-16T13:59:34;101593.63;;;15.10;100.00
10806;BME280;5455;53.224;6.000;2022-10-16T14:04:44;101600.94;;;14.99;100.00
10806;BME280;5455;53.224;6.000;2022-10-16T14:07:20;101595.47;;;15.03;100.00
10806;BME280;5455;53.224;6.000;2022-10-16T14:09:51;101607.94;;;15.12;100.00
10806;BME280;5455;53.224;6.000;2022-10-16T14:12:20;101601.31;;;15.20;100.00
10806;BME280;5455;53.224;6.000;2022-10-16T14:14:55;101592.34;;;15.30;100.00
10806;BME280;5455;53.224;6.000;2022-10-16T14:17:27;101594.06;;;15.38;100.00
10806;BME280;5455;53.224;6.000;2022-10-16T14:19:57;101600.50;;;15.42;100.00
10806;BME280;5455;53.224;6.000;2022-10-16T14:22:41;101598.47;;;15.39;100.00
10806;BME280;5455;53.224;6.000;2022-10-16T14:28:23;101606.84;;;15.17;99.90
10806;BME280;5455;53.224;6.000;2022-10-16T14:30:58;101613.91;;;15.14;100.00
10806;BME280;5455;53.224;6.000;2022-10-16T14:38:32;101638.13;;;15.14;99.07
10806;BME280;5455;53.224;6.000;2022-10-16T14:41:00;101639.22;;;15.09;98.69
10806;BME280;5455;53.224;6.000;2022-10-16T14:43:36;101654.19;;;15.01;99.63
10806;BME280;5455;53.224;6.000;2022-10-16T14:46:11;101641.63;;;14.88;99.95
10806;BME280;5455;53.224;6.000;2022-10-16T14:48:42;101640.31;;;14.82;100.00
10806;BME280;5455;53.224;6.000;2022-10-16T14:51:17;101646.19;;;14.77;100.00